sensor_id;sensor_type;location;lat;lon;timestamp;P1;durP1;ratioP1;P2;durP2;ratioP2
5951;SDS011;3001;42.622;23.194;2022-10-01T00:02:02;5.13;;;4.83;;
5951;SDS011;3001;42.622;23.194;2022-10-01T00:04:29;4.83;;;4.53;;
5951;SDS011;3001;42.622;23.194;2022-10-01T00:06:56;11.10;;;4.90;;
5951;SDS011;3001;42.622;23.194;2022-10-01T00:09:27;5.93;;;5.03;;
5951;SDS011;3001;42.622;23.194;2022-10-01T00:11:53;7.23;;;5.20;;
5951;SDS011;3001;42.622;23.194;2022-10-01T00:14:22;5.73;;;4.90;;
5951;SDS011;3001;42.622;23.194;2022-10-01T00:16:48;5.80;;;5.40;;
5951;SDS011;3001;42.622;23.194;2022-10-01T00:19:15;5.10;;;4.70;;
5951;SDS011;3001;42.622;23.194;2022-10-01T00:21:42;5.93;;;5.53;;
5951;SDS011;3001;42.622;23.194;2022-10-01T00:24:10;8.70;;;5.47;;
5951;SDS011;3001;42.622;23.194;2022-10-01T00:26:37;5.27;;;4.90;;
5951;SDS011;3001;42.622;23.194;2022-10-01T00:29:05;6.63;;;6.03;;
5951;SDS011;3001;42.622;23.194;2022-10-01T00:31:34;6.00;;;5.50;;
5951;SDS011;3001;42.622;23.194;2022-10-01T00:34:01;6.03;;;5.53;;
5951;SDS011;3001;42.622;23.194;2022-10-01T00:36:28;5.40;;;5.00;;
5951;SDS011;3001;42.622;23.194;2022-10-01T00:38:56;5.83;;;5.43;;
5951;SDS011;3001;42.622;23.194;2022-10-01T00:41:24;5.43;;;5.13;;
5951;SDS011;3001;42.622;23.194;2022-10-01T00:43:55;5.50;;;5.10;;
5951;SDS011;3001;42.622;23.194;2022-10-01T00:46:23;5.80;;;5.30;;
5951;SDS011;3001;42.622;23.194;2022-10-01T00:48:56;5.60;;;5.20;;
5951;SDS011;3001;42.622;23.194;2022-10-01T00:51:27;5.33;;;4.93;;
5951;SDS011;3001;42.622;23.194;2022-10-01T00:53:59;5.13;;;4.90;;
5951;SDS011;3001;42.622;23.194;2022-10-01T00:56:35;5.43;;;4.93;;
5951;SDS011;3001;42.622;23.194;2022-10-01T00:59:03;8.47;;;5.13;;
5951;SDS011;3001;42.622;23.194;2022-10-01T01:01:30;5.67;;;5.37;;
5951;SDS011;3001;42.622;23.194;2022-10-01T01:04:00;5.50;;;5.10;;
5951;SDS011;3001;42.622;23.194;2022-10-01T01:06:26;5.23;;;4.90;;
5951;SDS011;3001;42.622;23.194;2022-10-01T01:08:54;7.30;;;5.30;;
5951;SDS011;3001;42.622;23.194;2022-10-01T01:11:23;5.57;;;5.10;;
5951;SDS011;3001;42.622;23.194;2022-10-01T01:14:01;7.63;;;5.33;;
5951;SDS011;3001;42.622;23.194;2022-10-01T01:16:39;6.17;;;5.67;;
5951;SDS011;3001;42.622;23.194;2022-10-01T01:19:17;8.23;;;6.57;;
5951;SDS011;3001;42.622;23.194;2022-10-01T01:21:56;6.30;;;5.83;;
5951;SDS011;3001;42.622;23.194;2022-10-01T01:24:40;5.33;;;5.03;;
5951;SDS011;3001;42.622;23.194;2022-10-01T01:30:02;6.00;;;5.47;;
5951;SDS011;3001;42.622;23.194;2022-10-01T01:32:36;4.87;;;4.57;;
5951;SDS011;3001;42.622;23.194;2022-10-01T01:35:10;6.03;;;5.47;;
5951;SDS011;3001;42.622;23.194;2022-10-01T01:37:46;5.50;;;5.00;;
5951;SDS011;3001;42.622;23.194;2022-10-01T01:40:17;6.00;;;5.40;;
5951;SDS011;3001;42.622;23.194;2022-10-01T01:42:46;8.83;;;5.33;;
5951;SDS011;3001;42.622;23.194;2022-10-01T01:45:18;7.93;;;5.50;;
5951;SDS011;3001;42.622;23.194;2022-10-01T01:47:48;5.70;;;5.17;;
5951;SDS011;3001;42.622;23.194;2022-10-01T01:50:20;6.47;;;5.57;;
5951;SDS011;3001;42.622;23.194;2022-10-01T01:52:49;6.70;;;5.43;;
5951;SDS011;3001;42.622;23.194;2022-10-01T01:55:17;6.30;;;5.70;;
5951;SDS011;3001;42.622;23.194;2022-10-01T01:57:44;5.80;;;5.30;;
5951;SDS011;3001;42.622;23.194;2022-10-01T02:00:11;6.43;;;6.03;;
5951;SDS011;3001;42.622;23.194;2022-10-01T02:02:41;6.57;;;6.07;;
5951;SDS011;3001;42.622;23.194;2022-10-01T02:05:14;8.17;;;5.97;;
5951;SDS011;3001;42.622;23.194;2022-10-01T02:07:54;5.63;;;5.23;;
5951;SDS011;3001;42.622;23.194;2022-10-01T02:10:58;6.10;;;5.80;;
5951;SDS011;3001;42.622;23.194;2022-10-01T02:13:32;5.30;;;5.00;;
5951;SDS011;3001;42.622;23.194;2022-10-01T02:16:08;5.30;;;5.00;;
5951;SDS011;3001;42.622;23.194;2022-10-01T02:18:47;5.50;;;5.20;;
5951;SDS011;3001;42.622;23.194;2022-10-01T02:21:19;6.23;;;5.67;;
5951;SDS011;3001;42.622;23.194;2022-10-01T02:23:50;6.17;;;5.73;;
5951;SDS011;3001;42.622;23.194;2022-10-01T02:26:22;6.40;;;5.90;;
5951;SDS011;3001;42.622;23.194;2022-10-01T02:28:52;5.93;;;5.47;;
5951;SDS011;3001;42.622;23.194;2022-10-01T02:31:23;6.10;;;5.60;;
5951;SDS011;3001;42.622;23.194;2022-10-01T02:33:52;6.50;;;5.97;;
5951;SDS011;3001;42.622;23.194;2022-10-01T02:36:21;6.20;;;5.73;;
5951;SDS011;3001;42.622;23.194;2022-10-01T02:38:52;6.53;;;6.03;;
5951;SDS011;3001;42.622;23.194;2022-10-01T02:41:23;5.93;;;5.43;;
5951;SDS011;3001;42.622;23.194;2022-10-01T02:43:54;5.63;;;5.33;;
5951;SDS011;3001;42.622;23.194;2022-10-01T02:46:25;5.87;;;5.37;;
5951;SDS011;3001;42.622;23.194;2022-10-01T02:48:58;5.77;;;5.40;;
5951;SDS011;3001;42.622;23.194;2022-10-01T02:51:29;5.97;;;5.67;;
5951;SDS011;3001;42.622;23.194;2022-10-01T02:54:06;6.43;;;5.73;;
5951;SDS011;3001;42.622;23.194;2022-10-01T02:56:36;6.10;;;5.50;;
5951;SDS011;3001;42.622;23.194;2022-10-01T02:59:22;5.90;;;5.53;;
5951;SDS011;3001;42.622;23.194;2022-10-01T03:01:49;9.23;;;4.93;;
5951;SDS011;3001;42.622;23.194;2022-10-01T03:04:17;6.50;;;6.00;;
5951;SDS011;3001;42.622;23.194;2022-10-01T03:06:44;5.83;;;5.43;;
5951;SDS011;3001;42.622;23.194;2022-10-01T03:09:11;6.20;;;5.60;;
5951;SDS011;3001;42.622;23.194;2022-10-01T03:11:38;6.83;;;5.30;;
5951;SDS011;3001;42.622;23.194;2022-10-01T03:14:05;6.50;;;5.97;;
5951;SDS011;3001;42.622;23.194;2022-10-01T03:16:32;5.97;;;5.57;;
5951;SDS011;3001;42.622;23.194;2022-10-01T03:18:58;7.33;;;5.80;;
5951;SDS011;3001;42.622;23.194;2022-10-01T03:21:27;5.13;;;4.80;;
5951;SDS011;3001;42.622;23.194;2022-10-01T03:23:53;6.20;;;5.60;;
5951;SDS011;3001;42.622;23.194;2022-10-01T03:26:20;6.17;;;5.50;;
5951;SDS011;3001;42.622;23.194;2022-10-01T03:28:47;5.57;;;5.17;;
5951;SDS011;3001;42.622;23.194;2022-10-01T03:31:14;6.63;;;6.13;;
5951;SDS011;3001;42.622;23.194;2022-10-01T03:33:40;5.67;;;5.37;;
5951;SDS011;3001;42.622;23.194;2022-10-01T03:36:07;6.00;;;5.43;;
5951;SDS011;3001;42.622;23.194;2022-10-01T03:38:35;5.10;;;4.80;;
5951;SDS011;3001;42.622;23.194;2022-10-01T03:41:02;7.03;;;4.70;;
5951;SDS011;3001;42.622;23.194;2022-10-01T03:43:28;6.33;;;4.80;;
5951;SDS011;3001;42.622;23.194;2022-10-01T03:45:55;4.80;;;4.27;;
5951;SDS011;3001;42.622;23.194;2022-10-01T03:48:22;5.30;;;5.00;;
5951;SDS011;3001;42.622;23.194;2022-10-01T03:50:52;5.37;;;4.90;;
5951;SDS011;3001;42.622;23.194;2022-10-01T03:53:20;5.43;;;5.10;;
5951;SDS011;3001;42.622;23.194;2022-10-01T03:55:48;6.07;;;5.00;;
5951;SDS011;3001;42.622;23.194;2022-10-01T03:58:15;4.10;;;3.80;;
5951;SDS011;3001;42.622;23.194;2022-10-01T04:00:43;4.63;;;4.03;;
5951;SDS011;3001;42.622;23.194;2022-10-01T04:03:10;5.77;;;4.93;;
5951;SDS011;3001;42.622;23.194;2022-10-01T04:05:37;4.53;;;4.20;;
5951;SDS011;3001;42.622;23.194;2022-10-01T04:08:05;5.07;;;4.67;;
5951;SDS011;3001;42.622;23.194;2022-10-01T04:10:31;4.83;;;4.53;;
5951;SDS011;3001;42.622;23.194;2022-10-01T04:12:59;5.23;;;4.70;;
5951;SDS011;3001;42.622;23.194;2022-10-01T04:15:26;5.20;;;4.33;;
5951;SDS011;3001;42.622;23.194;2022-10-01T04:17:53;6.40;;;4.80;;
5951;SDS011;3001;42.622;23.194;2022-10-01T04:20:20;4.87;;;4.57;;
5951;SDS011;3001;42.622;23.194;2022-10-01T04:22:47;5.27;;;4.80;;
5951;SDS011;3001;42.622;23.194;2022-10-01T04:25:14;4.97;;;4.57;;
5951;SDS011;3001;42.622;23.194;2022-10-01T04:27:41;5.00;;;4.50;;
5951;SDS011;3001;42.622;23.194;2022-10-01T04:30:20;4.97;;;4.43;;
5951;SDS011;3001;42.622;23.194;2022-10-01T04:32:47;4.83;;;4.53;;
5951;SDS011;3001;42.622;23.194;2022-10-01T04:35:14;4.83;;;4.43;;
5951;SDS011;3001;42.622;23.194;2022-10-01T04:37:40;5.20;;;4.70;;
5951;SDS011;3001;42.622;23.194;2022-10-01T04:40:07;6.40;;;4.90;;
5951;SDS011;3001;42.622;23.194;2022-10-01T04:42:37;6.50;;;4.53;;
5951;SDS011;3001;42.622;23.194;2022-10-01T04:45:04;5.40;;;5.07;;
5951;SDS011;3001;42.622;23.194;2022-10-01T04:47:33;4.63;;;4.43;;
5951;SDS011;3001;42.622;23.194;2022-10-01T04:50:00;5.17;;;4.70;;
5951;SDS011;3001;42.622;23.194;2022-10-01T04:52:27;6.40;;;4.83;;
5951;SDS011;3001;42.622;23.194;2022-10-01T04:54:53;5.50;;;5.10;;
5951;SDS011;3001;42.622;23.194;2022-10-01T04:57:20;5.27;;;4.97;;
5951;SDS011;3001;42.622;23.194;2022-10-01T04:59:47;4.97;;;4.50;;
5951;SDS011;3001;42.622;23.194;2022-10-01T05:02:15;5.27;;;4.87;;
5951;SDS011;3001;42.622;23.194;2022-10-01T05:04:43;4.60;;;4.20;;
5951;SDS011;3001;42.622;23.194;2022-10-01T05:07:10;5.03;;;4.50;;
5951;SDS011;3001;42.622;23.194;2022-10-01T05:09:37;4.13;;;3.93;;
5951;SDS011;3001;42.622;23.194;2022-10-01T05:12:03;4.13;;;3.93;;
5951;SDS011;3001;42.622;23.194;2022-10-01T05:14:32;4.30;;;3.90;;
5951;SDS011;3001;42.622;23.194;2022-10-01T05:16:59;4.90;;;4.47;;
5951;SDS011;3001;42.622;23.194;2022-10-01T05:19:25;4.90;;;4.57;;
5951;SDS011;3001;42.622;23.194;2022-10-01T05:21:54;5.80;;;4.57;;
5951;SDS011;3001;42.622;23.194;2022-10-01T05:24:21;4.90;;;4.50;;
5951;SDS011;3001;42.622;23.194;2022-10-01T05:26:48;5.40;;;5.00;;
5951;SDS011;3001;42.622;23.194;2022-10-01T05:29:15;4.20;;;3.97;;
5951;SDS011;3001;42.622;23.194;2022-10-01T05:31:42;4.20;;;3.90;;
5951;SDS011;3001;42.622;23.194;2022-10-01T05:34:09;4.70;;;4.40;;
5951;SDS011;3001;42.622;23.194;2022-10-01T05:36:36;5.63;;;4.87;;
5951;SDS011;3001;42.622;23.194;2022-10-01T05:39:04;4.07;;;3.87;;
5951;SDS011;3001;42.622;23.194;2022-10-01T05:41:31;5.03;;;4.00;;
5951;SDS011;3001;42.622;23.194;2022-10-01T05:43:58;6.17;;;3.40;;
5951;SDS011;3001;42.622;23.194;2022-10-01T05:46:25;8.67;;;3.80;;
5951;SDS011;3001;42.622;23.194;2022-10-01T05:48:51;4.47;;;4.27;;
5951;SDS011;3001;42.622;23.194;2022-10-01T05:51:18;5.33;;;4.33;;
5951;SDS011;3001;42.622;23.194;2022-10-01T05:53:45;5.53;;;4.10;;
5951;SDS011;3001;42.622;23.194;2022-10-01T05:56:14;7.93;;;3.90;;
5951;SDS011;3001;42.622;23.194;2022-10-01T05:58:41;3.50;;;3.20;;
5951;SDS011;3001;42.622;23.194;2022-10-01T06:01:08;7.77;;;3.40;;
5951;SDS011;3001;42.622;23.194;2022-10-01T06:03:34;3.13;;;2.77;;
5951;SDS011;3001;42.622;23.194;2022-10-01T06:06:03;3.60;;;3.33;;
5951;SDS011;3001;42.622;23.194;2022-10-01T06:08:30;3.03;;;2.83;;
5951;SDS011;3001;42.622;23.194;2022-10-01T06:11:00;3.87;;;3.67;;
5951;SDS011;3001;42.622;23.194;2022-10-01T06:13:28;3.30;;;3.00;;
5951;SDS011;3001;42.622;23.194;2022-10-01T06:15:56;4.80;;;3.20;;
5951;SDS011;3001;42.622;23.194;2022-10-01T06:18:22;4.87;;;3.13;;
5951;SDS011;3001;42.622;23.194;2022-10-01T06:20:49;5.00;;;2.87;;
5951;SDS011;3001;42.622;23.194;2022-10-01T06:23:16;3.00;;;2.90;;
5951;SDS011;3001;42.622;23.194;2022-10-01T06:25:42;5.57;;;3.30;;
5951;SDS011;3001;42.622;23.194;2022-10-01T06:28:10;3.83;;;3.53;;
5951;SDS011;3001;42.622;23.194;2022-10-01T06:30:40;3.80;;;3.30;;
5951;SDS011;3001;42.622;23.194;2022-10-01T06:33:08;4.80;;;2.70;;
5951;SDS011;3001;42.622;23.194;2022-10-01T06:35:38;3.73;;;3.10;;
5951;SDS011;3001;42.622;23.194;2022-10-01T06:38:07;7.13;;;3.57;;
5951;SDS011;3001;42.622;23.194;2022-10-01T06:40:34;3.43;;;3.13;;
5951;SDS011;3001;42.622;23.194;2022-10-01T06:43:02;3.20;;;3.00;;
5951;SDS011;3001;42.622;23.194;2022-10-01T06:45:30;5.97;;;2.60;;
5951;SDS011;3001;42.622;23.194;2022-10-01T06:47:58;4.20;;;2.93;;
5951;SDS011;3001;42.622;23.194;2022-10-01T06:50:27;3.47;;;2.67;;
5951;SDS011;3001;42.622;23.194;2022-10-01T06:52:54;3.13;;;2.93;;
5951;SDS011;3001;42.622;23.194;2022-10-01T06:55:21;3.43;;;3.23;;
5951;SDS011;3001;42.622;23.194;2022-10-01T06:57:52;3.50;;;3.20;;
5951;SDS011;3001;42.622;23.194;2022-10-01T07:00:20;5.00;;;2.97;;
5951;SDS011;3001;42.622;23.194;2022-10-01T07:02:48;4.80;;;3.23;;
5951;SDS011;3001;42.622;23.194;2022-10-01T07:05:16;3.03;;;2.70;;
5951;SDS011;3001;42.622;23.194;2022-10-01T07:07:43;5.43;;;3.50;;
5951;SDS011;3001;42.622;23.194;2022-10-01T07:10:10;4.80;;;2.70;;
5951;SDS011;3001;42.622;23.194;2022-10-01T07:12:37;3.50;;;3.13;;
5951;SDS011;3001;42.622;23.194;2022-10-01T07:15:04;3.67;;;3.37;;
5951;SDS011;3001;42.622;23.194;2022-10-01T07:17:32;3.40;;;3.20;;
5951;SDS011;3001;42.622;23.194;2022-10-01T07:19:59;4.70;;;2.77;;
5951;SDS011;3001;42.622;23.194;2022-10-01T07:22:27;3.20;;;2.97;;
5951;SDS011;3001;42.622;23.194;2022-10-01T07:24:54;3.77;;;3.37;;
5951;SDS011;3001;42.622;23.194;2022-10-01T07:27:20;3.63;;;3.33;;
5951;SDS011;3001;42.622;23.194;2022-10-01T07:29:47;2.93;;;2.67;;
5951;SDS011;3001;42.622;23.194;2022-10-01T07:32:14;2.97;;;2.77;;
5951;SDS011;3001;42.622;23.194;2022-10-01T07:34:41;2.57;;;2.20;;
5951;SDS011;3001;42.622;23.194;2022-10-01T07:37:09;3.13;;;2.93;;
5951;SDS011;3001;42.622;23.194;2022-10-01T07:39:37;2.70;;;2.47;;
5951;SDS011;3001;42.622;23.194;2022-10-01T07:42:04;2.70;;;2.60;;
5951;SDS011;3001;42.622;23.194;2022-10-01T07:44:31;7.97;;;2.90;;
5951;SDS011;3001;42.622;23.194;2022-10-01T07:46:57;2.43;;;2.33;;
5951;SDS011;3001;42.622;23.194;2022-10-01T07:49:24;3.03;;;2.60;;
5951;SDS011;3001;42.622;23.194;2022-10-01T07:51:51;2.80;;;2.33;;
5951;SDS011;3001;42.622;23.194;2022-10-01T07:54:19;2.40;;;2.20;;
5951;SDS011;3001;42.622;23.194;2022-10-01T07:56:48;2.43;;;2.33;;
5951;SDS011;3001;42.622;23.194;2022-10-01T07:59:19;2.23;;;2.13;;
5951;SDS011;3001;42.622;23.194;2022-10-01T08:01:46;5.73;;;2.80;;
5951;SDS011;3001;42.622;23.194;2022-10-01T08:04:15;2.90;;;2.60;;
5951;SDS011;3001;42.622;23.194;2022-10-01T08:07:00;4.87;;;2.20;;
5951;SDS011;3001;42.622;23.194;2022-10-01T08:09:27;2.83;;;2.00;;
5951;SDS011;3001;42.622;23.194;2022-10-01T08:11:55;2.97;;;2.33;;
5951;SDS011;3001;42.622;23.194;2022-10-01T08:14:22;3.73;;;2.27;;
5951;SDS011;3001;42.622;23.194;2022-10-01T08:16:50;3.07;;;2.07;;
5951;SDS011;3001;42.622;23.194;2022-10-01T08:19:19;4.37;;;2.07;;
5951;SDS011;3001;42.622;23.194;2022-10-01T08:21:46;3.80;;;2.40;;
5951;SDS011;3001;42.622;23.194;2022-10-01T08:24:13;3.03;;;2.40;;
5951;SDS011;3001;42.622;23.194;2022-10-01T08:26:40;3.13;;;2.80;;
5951;SDS011;3001;42.622;23.194;2022-10-01T08:29:08;4.10;;;2.13;;
5951;SDS011;3001;42.622;23.194;2022-10-01T08:31:35;6.10;;;2.80;;
5951;SDS011;3001;42.622;23.194;2022-10-01T08:34:01;1.90;;;1.80;;
5951;SDS011;3001;42.622;23.194;2022-10-01T08:36:28;1.90;;;1.77;;
5951;SDS011;3001;42.622;23.194;2022-10-01T08:38:55;3.60;;;2.17;;
5951;SDS011;3001;42.622;23.194;2022-10-01T08:41:26;2.37;;;2.20;;
5951;SDS011;3001;42.622;23.194;2022-10-01T08:44:02;4.17;;;1.67;;
5951;SDS011;3001;42.622;23.194;2022-10-01T08:46:33;3.13;;;2.80;;
5951;SDS011;3001;42.622;23.194;2022-10-01T08:49:03;3.23;;;2.87;;
5951;SDS011;3001;42.622;23.194;2022-10-01T08:51:41;4.40;;;3.00;;
5951;SDS011;3001;42.622;23.194;2022-10-01T08:54:16;5.33;;;3.30;;
5951;SDS011;3001;42.622;23.194;2022-10-01T08:56:52;6.63;;;4.83;;
5951;SDS011;3001;42.622;23.194;2022-10-01T08:59:27;3.13;;;2.17;;
5951;SDS011;3001;42.622;23.194;2022-10-01T09:02:03;2.73;;;1.90;;
5951;SDS011;3001;42.622;23.194;2022-10-01T09:04:42;1.93;;;1.60;;
5951;SDS011;3001;42.622;23.194;2022-10-01T09:07:10;5.80;;;1.40;;
5951;SDS011;3001;42.622;23.194;2022-10-01T09:09:52;4.47;;;1.47;;
5951;SDS011;3001;42.622;23.194;2022-10-01T09:12:28;4.97;;;1.37;;
5951;SDS011;3001;42.622;23.194;2022-10-01T09:15:09;2.33;;;1.20;;
5951;SDS011;3001;42.622;23.194;2022-10-01T09:17:47;2.30;;;1.27;;
5951;SDS011;3001;42.622;23.194;2022-10-01T09:20:28;1.93;;;1.70;;
5951;SDS011;3001;42.622;23.194;2022-10-01T09:23:12;1.40;;;1.27;;
5951;SDS011;3001;42.622;23.194;2022-10-01T09:25:48;2.67;;;1.60;;
5951;SDS011;3001;42.622;23.194;2022-10-01T09:28:18;2.53;;;1.80;;
5951;SDS011;3001;42.622;23.194;2022-10-01T09:30:47;1.63;;;1.53;;
5951;SDS011;3001;42.622;23.194;2022-10-01T09:33:21;3.87;;;2.53;;
5951;SDS011;3001;42.622;23.194;2022-10-01T09:35:55;2.90;;;2.60;;
5951;SDS011;3001;42.622;23.194;2022-10-01T09:38:31;2.20;;;2.10;;
5951;SDS011;3001;42.622;23.194;2022-10-01T09:41:01;2.23;;;2.03;;
5951;SDS011;3001;42.622;23.194;2022-10-01T09:43:29;4.37;;;2.50;;
5951;SDS011;3001;42.622;23.194;2022-10-01T09:45:57;6.10;;;2.43;;
5951;SDS011;3001;42.622;23.194;2022-10-01T09:48:28;3.70;;;3.40;;
5951;SDS011;3001;42.622;23.194;2022-10-01T09:51:02;3.80;;;2.50;;
5951;SDS011;3001;42.622;23.194;2022-10-01T09:53:35;2.30;;;2.10;;
5951;SDS011;3001;42.622;23.194;2022-10-01T09:56:11;2.40;;;2.20;;
5951;SDS011;3001;42.622;23.194;2022-10-01T09:58:42;3.33;;;2.17;;
5951;SDS011;3001;42.622;23.194;2022-10-01T10:01:16;3.70;;;1.93;;
5951;SDS011;3001;42.622;23.194;2022-10-01T10:03:56;3.43;;;2.03;;
5951;SDS011;3001;42.622;23.194;2022-10-01T10:06:26;5.03;;;2.27;;
5951;SDS011;3001;42.622;23.194;2022-10-01T10:08:56;2.77;;;2.50;;
5951;SDS011;3001;42.622;23.194;2022-10-01T10:11:25;6.37;;;2.20;;
5951;SDS011;3001;42.622;23.194;2022-10-01T10:13:55;3.27;;;1.73;;
5951;SDS011;3001;42.622;23.194;2022-10-01T10:16:25;1.97;;;1.30;;
5951;SDS011;3001;42.622;23.194;2022-10-01T10:18:54;1.70;;;1.60;;
5951;SDS011;3001;42.622;23.194;2022-10-01T10:21:26;1.73;;;1.27;;
5951;SDS011;3001;42.622;23.194;2022-10-01T10:23:56;2.93;;;1.57;;
5951;SDS011;3001;42.622;23.194;2022-10-01T10:26:26;4.00;;;1.90;;
5951;SDS011;3001;42.622;23.194;2022-10-01T10:28:56;1.63;;;1.53;;
5951;SDS011;3001;42.622;23.194;2022-10-01T10:31:24;1.67;;;1.23;;
5951;SDS011;3001;42.622;23.194;2022-10-01T10:33:53;4.87;;;1.73;;
5951;SDS011;3001;42.622;23.194;2022-10-01T10:36:31;1.60;;;1.50;;
5951;SDS011;3001;42.622;23.194;2022-10-01T10:39:00;5.13;;;1.50;;
5951;SDS011;3001;42.622;23.194;2022-10-01T10:41:31;4.07;;;1.47;;
5951;SDS011;3001;42.622;23.194;2022-10-01T10:44:00;3.10;;;1.07;;
5951;SDS011;3001;42.622;23.194;2022-10-01T10:46:30;1.50;;;1.37;;
5951;SDS011;3001;42.622;23.194;2022-10-01T10:49:03;2.83;;;1.20;;
5951;SDS011;3001;42.622;23.194;2022-10-01T10:51:45;3.80;;;1.40;;
5951;SDS011;3001;42.622;23.194;2022-10-01T10:54:18;1.67;;;1.57;;
5951;SDS011;3001;42.622;23.194;2022-10-01T10:56:51;2.10;;;1.90;;
5951;SDS011;3001;42.622;23.194;2022-10-01T10:59:19;2.30;;;1.80;;
5951;SDS011;3001;42.622;23.194;2022-10-01T11:01:46;1.37;;;1.27;;
5951;SDS011;3001;42.622;23.194;2022-10-01T11:04:19;1.27;;;0.80;;
5951;SDS011;3001;42.622;23.194;2022-10-01T11:06:56;1.77;;;1.33;;
5951;SDS011;3001;42.622;23.194;2022-10-01T11:09:26;1.10;;;1.07;;
5951;SDS011;3001;42.622;23.194;2022-10-01T11:12:01;0.70;;;0.70;;
5951;SDS011;3001;42.622;23.194;2022-10-01T11:14:41;1.30;;;1.10;;
5951;SDS011;3001;42.622;23.194;2022-10-01T11:17:25;2.10;;;1.50;;
5951;SDS011;3001;42.622;23.194;2022-10-01T11:20:15;3.63;;;1.60;;
5951;SDS011;3001;42.622;23.194;2022-10-01T11:23:03;2.60;;;1.57;;
5951;SDS011;3001;42.622;23.194;2022-10-01T11:25:41;2.30;;;2.10;;
5951;SDS011;3001;42.622;23.194;2022-10-01T11:28:20;1.63;;;1.03;;
5951;SDS011;3001;42.622;23.194;2022-10-01T11:30:56;1.93;;;1.60;;
5951;SDS011;3001;42.622;23.194;2022-10-01T11:33:35;3.73;;;3.50;;
5951;SDS011;3001;42.622;23.194;2022-10-01T11:36:12;4.20;;;3.80;;
5951;SDS011;3001;42.622;23.194;2022-10-01T11:38:49;3.67;;;1.90;;
5951;SDS011;3001;42.622;23.194;2022-10-01T11:41:24;2.10;;;1.87;;
5951;SDS011;3001;42.622;23.194;2022-10-01T11:43:56;2.20;;;2.00;;
5951;SDS011;3001;42.622;23.194;2022-10-01T11:46:32;2.77;;;1.53;;
5951;SDS011;3001;42.622;23.194;2022-10-01T11:49:17;1.87;;;1.50;;
5951;SDS011;3001;42.622;23.194;2022-10-01T11:51:51;3.77;;;1.40;;
5951;SDS011;3001;42.622;23.194;2022-10-01T11:54:29;4.10;;;1.90;;
5951;SDS011;3001;42.622;23.194;2022-10-01T11:57:00;3.37;;;2.17;;
5951;SDS011;3001;42.622;23.194;2022-10-01T11:59:53;6.33;;;5.50;;
5951;SDS011;3001;42.622;23.194;2022-10-01T12:02:26;3.83;;;3.63;;
5951;SDS011;3001;42.622;23.194;2022-10-01T12:04:59;2.40;;;2.10;;
5951;SDS011;3001;42.622;23.194;2022-10-01T12:07:31;2.83;;;2.37;;
5951;SDS011;3001;42.622;23.194;2022-10-01T12:10:06;3.60;;;2.27;;
5951;SDS011;3001;42.622;23.194;2022-10-01T12:12:46;2.70;;;2.50;;
5951;SDS011;3001;42.622;23.194;2022-10-01T12:15:21;2.93;;;2.53;;
5951;SDS011;3001;42.622;23.194;2022-10-01T12:17:54;2.10;;;1.90;;
5951;SDS011;3001;42.622;23.194;2022-10-01T12:20:29;2.33;;;2.23;;
5951;SDS011;3001;42.622;23.194;2022-10-01T12:23:03;2.90;;;1.80;;
5951;SDS011;3001;42.622;23.194;2022-10-01T12:25:34;3.80;;;2.37;;
5951;SDS011;3001;42.622;23.194;2022-10-01T12:28:11;2.50;;;2.30;;
5951;SDS011;3001;42.622;23.194;2022-10-01T12:30:44;3.40;;;3.20;;
5951;SDS011;3001;42.622;23.194;2022-10-01T12:33:30;4.33;;;4.13;;
5951;SDS011;3001;42.622;23.194;2022-10-01T12:36:10;6.27;;;4.33;;
5951;SDS011;3001;42.622;23.194;2022-10-01T12:38:50;4.40;;;4.10;;
5951;SDS011;3001;42.622;23.194;2022-10-01T12:41:28;2.63;;;2.43;;
5951;SDS011;3001;42.622;23.194;2022-10-01T12:44:12;2.93;;;1.73;;
5951;SDS011;3001;42.622;23.194;2022-10-01T12:46:53;3.30;;;2.30;;
5951;SDS011;3001;42.622;23.194;2022-10-01T12:49:34;4.50;;;2.30;;
5951;SDS011;3001;42.622;23.194;2022-10-01T12:52:10;2.07;;;1.97;;
5951;SDS011;3001;42.622;23.194;2022-10-01T12:54:56;1.77;;;1.63;;
5951;SDS011;3001;42.622;23.194;2022-10-01T12:57:44;1.50;;;1.40;;
5951;SDS011;3001;42.622;23.194;2022-10-01T13:00:19;1.20;;;1.10;;
5951;SDS011;3001;42.622;23.194;2022-10-01T13:03:11;2.37;;;0.83;;
5951;SDS011;3001;42.622;23.194;2022-10-01T13:05:50;4.13;;;1.30;;
5951;SDS011;3001;42.622;23.194;2022-10-01T13:08:33;1.37;;;1.27;;
5951;SDS011;3001;42.622;23.194;2022-10-01T13:11:13;1.80;;;1.70;;
5951;SDS011;3001;42.622;23.194;2022-10-01T13:13:48;5.73;;;2.57;;
5951;SDS011;3001;42.622;23.194;2022-10-01T13:16:18;6.77;;;2.50;;
5951;SDS011;3001;42.622;23.194;2022-10-01T13:18:53;5.70;;;1.90;;
5951;SDS011;3001;42.622;23.194;2022-10-01T13:21:26;4.63;;;2.10;;
5951;SDS011;3001;42.622;23.194;2022-10-01T13:23:59;3.37;;;1.70;;
5951;SDS011;3001;42.622;23.194;2022-10-01T13:26:35;1.63;;;1.53;;
5951;SDS011;3001;42.622;23.194;2022-10-01T13:29:18;1.53;;;1.10;;
5951;SDS011;3001;42.622;23.194;2022-10-01T13:31:55;1.73;;;1.17;;
5951;SDS011;3001;42.622;23.194;2022-10-01T13:34:30;2.03;;;1.90;;
5951;SDS011;3001;42.622;23.194;2022-10-01T13:37:10;1.20;;;1.10;;
5951;SDS011;3001;42.622;23.194;2022-10-01T13:39:38;1.37;;;1.27;;
5951;SDS011;3001;42.622;23.194;2022-10-01T13:42:08;2.03;;;1.10;;
5951;SDS011;3001;42.622;23.194;2022-10-01T13:44:50;3.57;;;1.33;;
5951;SDS011;3001;42.622;23.194;2022-10-01T13:47:18;1.80;;;1.40;;
5951;SDS011;3001;42.622;23.194;2022-10-01T13:49:57;2.07;;;1.37;;
5951;SDS011;3001;42.622;23.194;2022-10-01T13:52:28;1.17;;;1.13;;
5951;SDS011;3001;42.622;23.194;2022-10-01T13:54:56;1.70;;;1.10;;
5951;SDS011;3001;42.622;23.194;2022-10-01T13:57:27;3.07;;;1.53;;
5951;SDS011;3001;42.622;23.194;2022-10-01T13:59:57;6.00;;;1.40;;
5951;SDS011;3001;42.622;23.194;2022-10-01T14:02:30;1.70;;;1.37;;
5951;SDS011;3001;42.622;23.194;2022-10-01T14:05:12;1.57;;;1.47;;
5951;SDS011;3001;42.622;23.194;2022-10-01T14:07:49;1.20;;;1.20;;
5951;SDS011;3001;42.622;23.194;2022-10-01T14:10:21;2.10;;;1.60;;
5951;SDS011;3001;42.622;23.194;2022-10-01T14:12:58;2.13;;;1.80;;
5951;SDS011;3001;42.622;23.194;2022-10-01T14:16:00;2.50;;;1.90;;
5951;SDS011;3001;42.622;23.194;2022-10-01T14:18:31;1.60;;;1.50;;
5951;SDS011;3001;42.622;23.194;2022-10-01T14:21:05;2.20;;;1.60;;
5951;SDS011;3001;42.622;23.194;2022-10-01T14:23:43;1.63;;;1.53;;
5951;SDS011;3001;42.622;23.194;2022-10-01T14:26:20;3.90;;;1.80;;
5951;SDS011;3001;42.622;23.194;2022-10-01T14:28:56;6.70;;;5.03;;
5951;SDS011;3001;42.622;23.194;2022-10-01T14:31:31;9.07;;;7.97;;
5951;SDS011;3001;42.622;23.194;2022-10-01T14:34:09;6.13;;;5.30;;
5951;SDS011;3001;42.622;23.194;2022-10-01T14:36:58;6.00;;;5.37;;
5951;SDS011;3001;42.622;23.194;2022-10-01T14:39:26;6.87;;;6.43;;
5951;SDS011;3001;42.622;23.194;2022-10-01T14:41:55;8.50;;;7.67;;
5951;SDS011;3001;42.622;23.194;2022-10-01T14:44:25;8.40;;;7.53;;
5951;SDS011;3001;42.622;23.194;2022-10-01T14:46:54;6.47;;;5.87;;
5951;SDS011;3001;42.622;23.194;2022-10-01T14:49:23;7.07;;;6.50;;
5951;SDS011;3001;42.622;23.194;2022-10-01T14:51:52;7.77;;;6.33;;
5951;SDS011;3001;42.622;23.194;2022-10-01T14:54:23;5.97;;;5.57;;
5951;SDS011;3001;42.622;23.194;2022-10-01T14:56:51;6.77;;;4.93;;
5951;SDS011;3001;42.622;23.194;2022-10-01T14:59:20;8.53;;;7.67;;
5951;SDS011;3001;42.622;23.194;2022-10-01T15:01:56;7.77;;;5.80;;
5951;SDS011;3001;42.622;23.194;2022-10-01T15:04:24;9.30;;;6.77;;
5951;SDS011;3001;42.622;23.194;2022-10-01T15:06:51;8.83;;;6.40;;
5951;SDS011;3001;42.622;23.194;2022-10-01T15:09:18;6.43;;;5.83;;
5951;SDS011;3001;42.622;23.194;2022-10-01T15:11:46;5.57;;;5.03;;
5951;SDS011;3001;42.622;23.194;2022-10-01T15:14:16;4.40;;;3.83;;
5951;SDS011;3001;42.622;23.194;2022-10-01T15:16:46;6.70;;;4.10;;
5951;SDS011;3001;42.622;23.194;2022-10-01T15:19:15;5.90;;;3.43;;
5951;SDS011;3001;42.622;23.194;2022-10-01T15:21:45;3.93;;;2.30;;
5951;SDS011;3001;42.622;23.194;2022-10-01T15:24:17;1.67;;;1.57;;
5951;SDS011;3001;42.622;23.194;2022-10-01T15:26:49;3.80;;;3.53;;
5951;SDS011;3001;42.622;23.194;2022-10-01T15:29:17;7.33;;;3.10;;